sensor_id;sensor_type;location;lat;lon;timestamp;temperature;humidity
37310;DHT22;23195;47.744;7.358;2024-03-02T00:00:43;5.10;99.90
37310;DHT22;23195;47.744;7.358;2024-03-02T00:03:12;5.00;99.90
37310;DHT22;23195;47.744;7.358;2024-03-02T00:05:39;4.90;99.90
37310;DHT22;23195;47.744;7.358;2024-03-02T00:08:07;4.80;99.90
37310;DHT22;23195;47.744;7.358;2024-03-02T00:10:42;4.80;99.90
37310;DHT22;23195;47.744;7.358;2024-03-02T00:13:13;4.70;99.90
37310;DHT22;23195;47.744;7.358;2024-03-02T00:15:42;4.70;99.90
37310;DHT22;23195;47.744;7.358;2024-03-02T00:18:20;4.70;99.90
37310;DHT22;23195;47.744;7.358;2024-03-02T00:20:48;4.60;99.90
37310;DHT22;23195;47.744;7.358;2024-03-02T00:23:21;4.60;99.90
37310;DHT22;23195;47.744;7.358;2024-03-02T00:25:49;4.50;99.90
37310;DHT22;23195;47.744;7.358;2024-03-02T00:28:29;4.50;99.90
37310;DHT22;23195;47.744;7.358;2024-03-02T00:33:31;4.40;99.90
37310;DHT22;23195;47.744;7.358;2024-03-02T00:36:02;4.40;99.90
37310;DHT22;23195;47.744;7.358;2024-03-02T00:38:29;4.30;99.90
37310;DHT22;23195;47.744;7.358;2024-03-02T00:40:58;4.30;99.90
37310;DHT22;23195;47.744;7.358;2024-03-02T00:46:08;4.30;99.90
37310;DHT22;23195;47.744;7.358;2024-03-02T00:48:38;4.20;99.90
37310;DHT22;23195;47.744;7.358;2024-03-02T00:51:09;4.20;99.90
37310;DHT22;23195;47.744;7.358;2024-03-02T00:53:35;4.10;99.90
37310;DHT22;23195;47.744;7.358;2024-03-02T00:56:01;4.20;99.90
37310;DHT22;23195;47.744;7.358;2024-03-02T00:58:27;4.10;99.90
37310;DHT22;23195;47.744;7.358;2024-03-02T01:00:53;4.10;99.90
37310;DHT22;23195;47.744;7.358;2024-03-02T01:03:19;4.30;99.90
37310;DHT22;23195;47.744;7.358;2024-03-02T01:05:45;4.30;99.90
37310;DHT22;23195;47.744;7.358;2024-03-02T01:08:11;4.50;99.90
37310;DHT22;23195;47.744;7.358;2024-03-02T01:10:46;4.70;99.90
37310;DHT22;23195;47.744;7.358;2024-03-02T01:13:14;4.90;99.90
37310;DHT22;23195;47.744;7.358;2024-03-02T01:15:40;5.00;99.90
37310;DHT22;23195;47.744;7.358;2024-03-02T01:18:09;5.00;99.90
37310;DHT22;23195;47.744;7.358;2024-03-02T01:20:38;5.30;99.90
37310;DHT22;23195;47.744;7.358;2024-03-02T01:23:04;5.40;99.90
37310;DHT22;23195;47.744;7.358;2024-03-02T01:25:29;5.40;99.90
37310;DHT22;23195;47.744;7.358;2024-03-02T01:27:55;5.50;99.90
37310;DHT22;23195;47.744;7.358;2024-03-02T01:30:24;5.60;99.90
37310;DHT22;23195;47.744;7.358;2024-03-02T01:32:49;5.60;99.90
37310;DHT22;23195;47.744;7.358;2024-03-02T01:35:15;5.60;99.90
37310;DHT22;23195;47.744;7.358;2024-03-02T01:37:41;5.60;99.90
37310;DHT22;23195;47.744;7.358;2024-03-02T01:40:13;5.60;99.90
37310;DHT22;23195;47.744;7.358;2024-03-02T01:42:39;5.90;99.90
37310;DHT22;23195;47.744;7.358;2024-03-02T01:45:06;5.70;99.90
37310;DHT22;23195;47.744;7.358;2024-03-02T01:47:32;5.60;99.90
37310;DHT22;23195;47.744;7.358;2024-03-02T01:49:58;5.60;99.90
37310;DHT22;23195;47.744;7.358;2024-03-02T01:52:27;5.60;99.90
37310;DHT22;23195;47.744;7.358;2024-03-02T01:54:53;5.70;99.90
37310;DHT22;23195;47.744;7.358;2024-03-02T01:57:25;5.70;99.90
37310;DHT22;23195;47.744;7.358;2024-03-02T01:59:51;5.80;99.90
37310;DHT22;23195;47.744;7.358;2024-03-02T02:02:19;5.70;99.90
37310;DHT22;23195;47.744;7.358;2024-03-02T02:04:45;5.70;99.90
37310;DHT22;23195;47.744;7.358;2024-03-02T02:07:11;5.70;99.90
37310;DHT22;23195;47.744;7.358;2024-03-02T02:09:43;5.70;99.90
37310;DHT22;23195;47.744;7.358;2024-03-02T02:12:10;5.70;99.90
37310;DHT22;23195;47.744;7.358;2024-03-02T02:14:36;5.70;99.90
37310;DHT22;23195;47.744;7.358;2024-03-02T02:17:04;5.70;99.90
37310;DHT22;23195;47.744;7.358;2024-03-02T02:19:30;5.60;99.90
37310;DHT22;23195;47.744;7.358;2024-03-02T02:21:55;5.60;99.90
37310;DHT22;23195;47.744;7.358;2024-03-02T02:24:32;5.60;99.90
37310;DHT22;23195;47.744;7.358;2024-03-02T02:27:00;5.50;99.90
37310;DHT22;23195;47.744;7.358;2024-03-02T02:29:28;5.60;99.90
37310;DHT22;23195;47.744;7.358;2024-03-02T02:31:59;5.60;99.90
37310;DHT22;23195;47.744;7.358;2024-03-02T02:34:25;5.60;99.90
37310;DHT22;23195;47.744;7.358;2024-03-02T02:36:51;5.50;99.90
37310;DHT22;23195;47.744;7.358;2024-03-02T02:39:23;5.50;99.90
37310;DHT22;23195;47.744;7.358;2024-03-02T02:41:49;5.40;99.90
37310;DHT22;23195;47.744;7.358;2024-03-02T02:44:15;5.30;99.90
37310;DHT22;23195;47.744;7.358;2024-03-02T02:46:41;4.70;99.90
37310;DHT22;23195;47.744;7.358;2024-03-02T02:49:07;4.90;99.90
37310;DHT22;23195;47.744;7.358;2024-03-02T02:51:33;4.70;99.90
37310;DHT22;23195;47.744;7.358;2024-03-02T02:53:59;4.50;99.90
37310;DHT22;23195;47.744;7.358;2024-03-02T02:56:25;4.40;99.90
37310;DHT22;23195;47.744;7.358;2024-03-02T02:58:51;4.30;99.90
37310;DHT22;23195;47.744;7.358;2024-03-02T03:01:17;4.10;99.90
37310;DHT22;23195;47.744;7.358;2024-03-02T03:03:44;4.00;99.90
37310;DHT22;23195;47.744;7.358;2024-03-02T03:06:10;4.10;99.90
37310;DHT22;23195;47.744;7.358;2024-03-02T03:08:36;4.00;99.90
37310;DHT22;23195;47.744;7.358;2024-03-02T03:11:02;4.00;99.90
37310;DHT22;23195;47.744;7.358;2024-03-02T03:13:27;4.10;99.90
37310;DHT22;23195;47.744;7.358;2024-03-02T03:15:53;4.20;99.90
37310;DHT22;23195;47.744;7.358;2024-03-02T03:18:19;4.30;99.90
37310;DHT22;23195;47.744;7.358;2024-03-02T03:20:45;4.40;99.90
37310;DHT22;23195;47.744;7.358;2024-03-02T03:23:20;4.60;99.90
37310;DHT22;23195;47.744;7.358;2024-03-02T03:25:49;5.50;99.90
37310;DHT22;23195;47.744;7.358;2024-03-02T03:28:15;4.70;99.90
37310;DHT22;23195;47.744;7.358;2024-03-02T03:30:41;4.60;99.90
37310;DHT22;23195;47.744;7.358;2024-03-02T03:33:07;4.50;99.90
37310;DHT22;23195;47.744;7.358;2024-03-02T03:35:33;4.40;99.90
37310;DHT22;23195;47.744;7.358;2024-03-02T03:37:59;4.30;99.90
37310;DHT22;23195;47.744;7.358;2024-03-02T03:40:25;2.80;99.90
37310;DHT22;23195;47.744;7.358;2024-03-02T03:42:57;4.10;99.90
37310;DHT22;23195;47.744;7.358;2024-03-02T03:45:25;4.70;99.90
37310;DHT22;23195;47.744;7.358;2024-03-02T03:47:53;3.90;99.90
37310;DHT22;23195;47.744;7.358;2024-03-02T03:50:26;3.80;99.90
37310;DHT22;23195;47.744;7.358;2024-03-02T03:52:52;3.80;99.90
37310;DHT22;23195;47.744;7.358;2024-03-02T03:55:20;3.70;99.90
37310;DHT22;23195;47.744;7.358;2024-03-02T03:57:46;3.80;99.90
37310;DHT22;23195;47.744;7.358;2024-03-02T04:00:15;3.90;99.90
37310;DHT22;23195;47.744;7.358;2024-03-02T04:02:50;4.20;99.90
37310;DHT22;23195;47.744;7.358;2024-03-02T04:05:16;4.30;99.90
37310;DHT22;23195;47.744;7.358;2024-03-02T04:07:41;4.30;99.90
37310;DHT22;23195;47.744;7.358;2024-03-02T04:10:09;4.50;99.90
37310;DHT22;23195;47.744;7.358;2024-03-02T04:12:41;4.60;99.90
37310;DHT22;23195;47.744;7.358;2024-03-02T04:15:09;4.80;99.90
37310;DHT22;23195;47.744;7.358;2024-03-02T04:17:34;4.80;99.90
37310;DHT22;23195;47.744;7.358;2024-03-02T04:20:02;4.90;99.90
37310;DHT22;23195;47.744;7.358;2024-03-02T04:22:30;4.80;99.90
37310;DHT22;23195;47.744;7.358;2024-03-02T04:25:04;5.10;99.90
37310;DHT22;23195;47.744;7.358;2024-03-02T04:27:32;5.30;99.90
37310;DHT22;23195;47.744;7.358;2024-03-02T04:29:59;5.30;99.90
37310;DHT22;23195;47.744;7.358;2024-03-02T04:32:27;5.50;99.90
37310;DHT22;23195;47.744;7.358;2024-03-02T04:35:01;5.50;99.90
37310;DHT22;23195;47.744;7.358;2024-03-02T04:37:27;5.60;99.90
37310;DHT22;23195;47.744;7.358;2024-03-02T04:39:53;5.50;99.90
37310;DHT22;23195;47.744;7.358;2024-03-02T04:42:22;5.50;99.90
37310;DHT22;23195;47.744;7.358;2024-03-02T04:44:51;5.60;99.90
37310;DHT22;23195;47.744;7.358;2024-03-02T04:47:17;5.50;99.90
37310;DHT22;23195;47.744;7.358;2024-03-02T04:49:42;5.50;99.90
37310;DHT22;23195;47.744;7.358;2024-03-02T04:52:11;5.50;99.90
37310;DHT22;23195;47.744;7.358;2024-03-02T04:54:43;5.50;99.90
37310;DHT22;23195;47.744;7.358;2024-03-02T04:57:44;5.50;99.90
37310;DHT22;23195;47.744;7.358;2024-03-02T05:00:13;5.60;99.90
37310;DHT22;23195;47.744;7.358;2024-03-02T05:02:39;5.70;99.90
37310;DHT22;23195;47.744;7.358;2024-03-02T05:05:05;5.70;99.90
37310;DHT22;23195;47.744;7.358;2024-03-02T05:07:33;5.80;99.90
37310;DHT22;23195;47.744;7.358;2024-03-02T05:09:59;5.80;99.90
37310;DHT22;23195;47.744;7.358;2024-03-02T05:12:25;5.90;99.90
37310;DHT22;23195;47.744;7.358;2024-03-02T05:15:15;5.80;99.90
37310;DHT22;23195;47.744;7.358;2024-03-02T05:17:42;5.90;99.90
37310;DHT22;23195;47.744;7.358;2024-03-02T05:20:13;5.90;99.90
37310;DHT22;23195;47.744;7.358;2024-03-02T05:22:39;5.70;99.90
37310;DHT22;23195;47.744;7.358;2024-03-02T05:25:06;5.80;99.90
37310;DHT22;23195;47.744;7.358;2024-03-02T05:27:35;5.80;99.90
37310;DHT22;23195;47.744;7.358;2024-03-02T05:30:01;5.80;99.90
37310;DHT22;23195;47.744;7.358;2024-03-02T05:32:27;5.80;99.90
37310;DHT22;23195;47.744;7.358;2024-03-02T05:34:56;5.70;99.90
37310;DHT22;23195;47.744;7.358;2024-03-02T05:37:22;5.70;99.90
37310;DHT22;23195;47.744;7.358;2024-03-02T05:39:50;5.70;99.90
37310;DHT22;23195;47.744;7.358;2024-03-02T05:42:19;5.80;99.90
37310;DHT22;23195;47.744;7.358;2024-03-02T05:44:44;5.80;99.90
37310;DHT22;23195;47.744;7.358;2024-03-02T05:47:10;5.80;99.90
37310;DHT22;23195;47.744;7.358;2024-03-02T05:49:36;5.80;99.90
37310;DHT22;23195;47.744;7.358;2024-03-02T05:52:04;5.90;99.90
37310;DHT22;23195;47.744;7.358;2024-03-02T05:54:30;5.90;99.90
37310;DHT22;23195;47.744;7.358;2024-03-02T05:56:59;5.80;99.90
37310;DHT22;23195;47.744;7.358;2024-03-02T05:59:45;5.80;99.90
37310;DHT22;23195;47.744;7.358;2024-03-02T06:02:11;5.70;99.90
37310;DHT22;23195;47.744;7.358;2024-03-02T06:04:37;5.60;99.90
37310;DHT22;23195;47.744;7.358;2024-03-02T06:07:06;5.70;99.90
37310;DHT22;23195;47.744;7.358;2024-03-02T06:09:31;5.70;99.90
37310;DHT22;23195;47.744;7.358;2024-03-02T06:11:57;5.70;99.90
37310;DHT22;23195;47.744;7.358;2024-03-02T06:14:23;5.70;99.90
37310;DHT22;23195;47.744;7.358;2024-03-02T06:16:49;5.60;99.90
37310;DHT22;23195;47.744;7.358;2024-03-02T06:19:15;5.70;99.90
37310;DHT22;23195;47.744;7.358;2024-03-02T06:21:40;5.70;99.90
37310;DHT22;23195;47.744;7.358;2024-03-02T06:24:09;5.10;99.90
37310;DHT22;23195;47.744;7.358;2024-03-02T06:26:36;5.70;99.90
37310;DHT22;23195;47.744;7.358;2024-03-02T06:29:08;5.70;99.90
37310;DHT22;23195;47.744;7.358;2024-03-02T06:31:34;5.80;99.90
37310;DHT22;23195;47.744;7.358;2024-03-02T06:34:00;4.60;99.90
37310;DHT22;23195;47.744;7.358;2024-03-02T06:36:30;5.90;99.90
37310;DHT22;23195;47.744;7.358;2024-03-02T06:39:02;5.90;99.90
37310;DHT22;23195;47.744;7.358;2024-03-02T06:41:28;6.00;99.90
37310;DHT22;23195;47.744;7.358;2024-03-02T06:43:55;6.00;99.90
37310;DHT22;23195;47.744;7.358;2024-03-02T06:46:25;6.60;99.90
37310;DHT22;23195;47.744;7.358;2024-03-02T06:48:54;6.00;99.90
37310;DHT22;23195;47.744;7.358;2024-03-02T06:51:37;6.10;99.90
37310;DHT22;23195;47.744;7.358;2024-03-02T06:54:07;6.10;99.90
37310;DHT22;23195;47.744;7.358;2024-03-02T06:56:33;6.20;99.90
37310;DHT22;23195;47.744;7.358;2024-03-02T06:58:59;6.30;99.90
37310;DHT22;23195;47.744;7.358;2024-03-02T07:01:24;6.30;99.90
37310;DHT22;23195;47.744;7.358;2024-03-02T07:03:52;6.30;99.90
37310;DHT22;23195;47.744;7.358;2024-03-02T07:06:17;6.30;99.90
37310;DHT22;23195;47.744;7.358;2024-03-02T07:08:46;5.30;99.90
37310;DHT22;23195;47.744;7.358;2024-03-02T07:11:11;6.30;99.90
37310;DHT22;23195;47.744;7.358;2024-03-02T07:13:37;6.30;99.90
37310;DHT22;23195;47.744;7.358;2024-03-02T07:16:03;6.30;99.90
37310;DHT22;23195;47.744;7.358;2024-03-02T07:18:32;6.30;99.90
37310;DHT22;23195;47.744;7.358;2024-03-02T07:21:03;6.30;99.90
37310;DHT22;23195;47.744;7.358;2024-03-02T07:23:31;6.30;99.90
37310;DHT22;23195;47.744;7.358;2024-03-02T07:25:57;6.40;99.90
37310;DHT22;23195;47.744;7.358;2024-03-02T07:28:26;6.40;99.90
37310;DHT22;23195;47.744;7.358;2024-03-02T07:30:59;6.60;99.90
37310;DHT22;23195;47.744;7.358;2024-03-02T07:33:25;6.60;99.90
37310;DHT22;23195;47.744;7.358;2024-03-02T07:35:51;6.70;99.90
37310;DHT22;23195;47.744;7.358;2024-03-02T07:38:16;6.80;99.90
37310;DHT22;23195;47.744;7.358;2024-03-02T07:40:42;7.00;99.90
37310;DHT22;23195;47.744;7.358;2024-03-02T07:43:11;7.10;99.90
37310;DHT22;23195;47.744;7.358;2024-03-02T07:45:37;7.50;99.90
37310;DHT22;23195;47.744;7.358;2024-03-02T07:48:03;8.10;99.90
37310;DHT22;23195;47.744;7.358;2024-03-02T07:50:29;8.80;99.90
37310;DHT22;23195;47.744;7.358;2024-03-02T07:53:01;9.60;99.90
37310;DHT22;23195;47.744;7.358;2024-03-02T07:55:29;10.00;99.90
37310;DHT22;23195;47.744;7.358;2024-03-02T07:57:58;10.10;99.90
37310;DHT22;23195;47.744;7.358;2024-03-02T08:00:25;10.40;99.90
37310;DHT22;23195;47.744;7.358;2024-03-02T08:02:51;11.10;99.90
37310;DHT22;23195;47.744;7.358;2024-03-02T08:05:17;11.00;99.90
37310;DHT22;23195;47.744;7.358;2024-03-02T08:07:46;11.30;99.90
37310;DHT22;23195;47.744;7.358;2024-03-02T08:10:13;11.50;99.90
37310;DHT22;23195;47.744;7.358;2024-03-02T08:12:39;11.30;99.90
37310;DHT22;23195;47.744;7.358;2024-03-02T08:15:05;11.60;99.90
37310;DHT22;23195;47.744;7.358;2024-03-02T08:17:31;12.10;99.90
37310;DHT22;23195;47.744;7.358;2024-03-02T08:19:58;12.20;99.90
37310;DHT22;23195;47.744;7.358;2024-03-02T08:22:24;11.80;99.90
37310;DHT22;23195;47.744;7.358;2024-03-02T08:24:55;12.00;99.90
37310;DHT22;23195;47.744;7.358;2024-03-02T08:27:21;12.10;99.90
37310;DHT22;23195;47.744;7.358;2024-03-02T08:29:47;12.20;99.90
37310;DHT22;23195;47.744;7.358;2024-03-02T08:32:13;12.40;99.90
37310;DHT22;23195;47.744;7.358;2024-03-02T08:34:38;12.60;99.90
37310;DHT22;23195;47.744;7.358;2024-03-02T08:37:04;12.50;99.90
37310;DHT22;23195;47.744;7.358;2024-03-02T08:39:33;12.60;99.90
37310;DHT22;23195;47.744;7.358;2024-03-02T08:41:59;12.30;99.90
37310;DHT22;23195;47.744;7.358;2024-03-02T08:44:25;12.20;99.90
37310;DHT22;23195;47.744;7.358;2024-03-02T08:46:50;12.10;99.90
37310;DHT22;23195;47.744;7.358;2024-03-02T08:49:16;11.80;99.90
37310;DHT22;23195;47.744;7.358;2024-03-02T08:51:42;11.70;99.90
37310;DHT22;23195;47.744;7.358;2024-03-02T08:54:08;11.70;99.90
37310;DHT22;23195;47.744;7.358;2024-03-02T08:56:35;11.20;99.90
37310;DHT22;23195;47.744;7.358;2024-03-02T08:59:04;11.10;99.90
37310;DHT22;23195;47.744;7.358;2024-03-02T09:01:30;10.90;99.90
37310;DHT22;23195;47.744;7.358;2024-03-02T09:03:55;10.80;99.90
37310;DHT22;23195;47.744;7.358;2024-03-02T09:06:21;10.90;99.90
37310;DHT22;23195;47.744;7.358;2024-03-02T09:08:47;10.70;99.90
37310;DHT22;23195;47.744;7.358;2024-03-02T09:11:15;10.70;99.90
37310;DHT22;23195;47.744;7.358;2024-03-02T09:13:43;10.70;99.90
37310;DHT22;23195;47.744;7.358;2024-03-02T09:16:09;10.50;99.90
37310;DHT22;23195;47.744;7.358;2024-03-02T09:18:40;10.20;99.90
37310;DHT22;23195;47.744;7.358;2024-03-02T09:21:06;10.60;99.90
37310;DHT22;23195;47.744;7.358;2024-03-02T09:23:33;10.00;99.90
37310;DHT22;23195;47.744;7.358;2024-03-02T09:25:59;9.90;99.90
37310;DHT22;23195;47.744;7.358;2024-03-02T09:28:25;9.90;99.90
37310;DHT22;23195;47.744;7.358;2024-03-02T09:30:51;9.90;99.90
37310;DHT22;23195;47.744;7.358;2024-03-02T09:33:16;9.90;99.90
37310;DHT22;23195;47.744;7.358;2024-03-02T09:35:42;10.00;99.90
37310;DHT22;23195;47.744;7.358;2024-03-02T09:38:08;10.00;99.90
37310;DHT22;23195;47.744;7.358;2024-03-02T09:40:34;10.00;99.90
37310;DHT22;23195;47.744;7.358;2024-03-02T09:43:00;10.00;99.90
37310;DHT22;23195;47.744;7.358;2024-03-02T09:45:26;10.00;99.90
37310;DHT22;23195;47.744;7.358;2024-03-02T09:47:52;10.20;99.90
37310;DHT22;23195;47.744;7.358;2024-03-02T09:50:18;10.20;99.90
37310;DHT22;23195;47.744;7.358;2024-03-02T09:52:44;10.30;99.90
37310;DHT22;23195;47.744;7.358;2024-03-02T09:55:14;10.50;99.90
37310;DHT22;23195;47.744;7.358;2024-03-02T09:57:41;10.60;99.90
37310;DHT22;23195;47.744;7.358;2024-03-02T10:00:08;10.60;99.90
37310;DHT22;23195;47.744;7.358;2024-03-02T10:02:34;10.60;99.90
37310;DHT22;23195;47.744;7.358;2024-03-02T10:05:00;10.60;99.90
37310;DHT22;23195;47.744;7.358;2024-03-02T10:07:26;10.50;99.90
37310;DHT22;23195;47.744;7.358;2024-03-02T10:09:51;10.50;99.90
37310;DHT22;23195;47.744;7.358;2024-03-02T10:12:18;10.50;99.90
37310;DHT22;23195;47.744;7.358;2024-03-02T10:14:44;10.70;99.90
37310;DHT22;23195;47.744;7.358;2024-03-02T10:17:12;10.90;99.90
37310;DHT22;23195;47.744;7.358;2024-03-02T10:19:39;11.00;99.90
37310;DHT22;23195;47.744;7.358;2024-03-02T10:22:09;11.10;99.90
37310;DHT22;23195;47.744;7.358;2024-03-02T10:27:07;11.30;99.90
37310;DHT22;23195;47.744;7.358;2024-03-02T10:29:37;11.30;99.90
37310;DHT22;23195;47.744;7.358;2024-03-02T10:32:04;11.40;99.90
37310;DHT22;23195;47.744;7.358;2024-03-02T10:34:31;11.40;99.90
37310;DHT22;23195;47.744;7.358;2024-03-02T10:36:59;11.10;99.90
37310;DHT22;23195;47.744;7.358;2024-03-02T10:39:29;11.70;99.90
37310;DHT22;23195;47.744;7.358;2024-03-02T10:41:58;11.80;99.90
37310;DHT22;23195;47.744;7.358;2024-03-02T10:44:25;11.80;99.90
37310;DHT22;23195;47.744;7.358;2024-03-02T10:46:52;11.90;99.90
37310;DHT22;23195;47.744;7.358;2024-03-02T10:49:20;11.90;99.90
37310;DHT22;23195;47.744;7.358;2024-03-02T10:51:50;12.00;99.90
37310;DHT22;23195;47.744;7.358;2024-03-02T10:54:16;12.00;99.90
37310;DHT22;23195;47.744;7.358;2024-03-02T10:56:44;12.00;99.90
37310;DHT22;23195;47.744;7.358;2024-03-02T11:01:47;12.30;99.90
37310;DHT22;23195;47.744;7.358;2024-03-02T11:04:16;12.30;99.90
37310;DHT22;23195;47.744;7.358;2024-03-02T11:06:50;12.40;99.90
37310;DHT22;23195;47.744;7.358;2024-03-02T11:09:20;12.60;99.90
37310;DHT22;23195;47.744;7.358;2024-03-02T11:11:54;12.70;99.90
37310;DHT22;23195;47.744;7.358;2024-03-02T11:14:24;12.80;99.90
37310;DHT22;23195;47.744;7.358;2024-03-02T11:16:52;12.90;99.90
37310;DHT22;23195;47.744;7.358;2024-03-02T11:19:18;13.10;99.90
37310;DHT22;23195;47.744;7.358;2024-03-02T11:21:45;13.00;99.90
37310;DHT22;23195;47.744;7.358;2024-03-02T11:27:04;13.10;99.90
37310;DHT22;23195;47.744;7.358;2024-03-02T11:32:13;12.90;99.90
37310;DHT22;23195;47.744;7.358;2024-03-02T11:34:41;12.40;99.90
37310;DHT22;23195;47.744;7.358;2024-03-02T11:37:15;13.00;99.90
37310;DHT22;23195;47.744;7.358;2024-03-02T11:39:46;13.00;99.90
37310;DHT22;23195;47.744;7.358;2024-03-02T11:42:15;13.00;99.90
37310;DHT22;23195;47.744;7.358;2024-03-02T11:44:46;13.20;99.90
37310;DHT22;23195;47.744;7.358;2024-03-02T11:47:15;13.40;99.90
37310;DHT22;23195;47.744;7.358;2024-03-02T11:49:59;13.60;99.90
37310;DHT22;23195;47.744;7.358;2024-03-02T11:52:27;13.70;99.90
37310;DHT22;23195;47.744;7.358;2024-03-02T11:54:56;13.70;99.90
37310;DHT22;23195;47.744;7.358;2024-03-02T11:57:23;13.80;99.90
37310;DHT22;23195;47.744;7.358;2024-03-02T11:59:49;13.90;99.90
37310;DHT22;23195;47.744;7.358;2024-03-02T12:02:20;14.20;99.90
37310;DHT22;23195;47.744;7.358;2024-03-02T12:04:47;14.20;99.30
37310;DHT22;23195;47.744;7.358;2024-03-02T12:07:20;14.50;98.50
37310;DHT22;23195;47.744;7.358;2024-03-02T12:10:09;14.50;97.40
37310;DHT22;23195;47.744;7.358;2024-03-02T12:12:40;14.60;97.00
37310;DHT22;23195;47.744;7.358;2024-03-02T12:15:07;14.60;97.10
37310;DHT22;23195;47.744;7.358;2024-03-02T12:17:35;14.60;96.70
37310;DHT22;23195;47.744;7.358;2024-03-02T12:20:07;14.30;96.60
37310;DHT22;23195;47.744;7.358;2024-03-02T12:22:37;14.30;96.70
37310;DHT22;23195;47.744;7.358;2024-03-02T12:25:03;14.40;96.60
37310;DHT22;23195;47.744;7.358;2024-03-02T12:27:29;14.50;96.30
37310;DHT22;23195;47.744;7.358;2024-03-02T12:29:55;14.50;95.80
37310;DHT22;23195;47.744;7.358;2024-03-02T12:32:21;14.60;95.70
37310;DHT22;23195;47.744;7.358;2024-03-02T12:34:47;14.70;95.60
37310;DHT22;23195;47.744;7.358;2024-03-02T12:37:14;14.80;94.90
37310;DHT22;23195;47.744;7.358;2024-03-02T12:39:39;14.80;95.00
37310;DHT22;23195;47.744;7.358;2024-03-02T12:42:05;14.90;94.80
37310;DHT22;23195;47.744;7.358;2024-03-02T12:44:31;14.80;94.90
37310;DHT22;23195;47.744;7.358;2024-03-02T12:46:57;14.80;94.80
37310;DHT22;23195;47.744;7.358;2024-03-02T12:49:23;14.90;94.80
37310;DHT22;23195;47.744;7.358;2024-03-02T12:51:49;14.90;94.50
37310;DHT22;23195;47.744;7.358;2024-03-02T12:54:22;15.00;94.40
37310;DHT22;23195;47.744;7.358;2024-03-02T12:56:48;14.90;93.60
37310;DHT22;23195;47.744;7.358;2024-03-02T12:59:23;14.90;93.70
37310;DHT22;23195;47.744;7.358;2024-03-02T13:01:54;15.00;93.80
37310;DHT22;23195;47.744;7.358;2024-03-02T13:04:26;15.00;93.60
37310;DHT22;23195;47.744;7.358;2024-03-02T13:06:54;15.10;93.60
37310;DHT22;23195;47.744;7.358;2024-03-02T13:09:21;15.10;92.80
37310;DHT22;23195;47.744;7.358;2024-03-02T13:11:47;15.20;92.90
37310;DHT22;23195;47.744;7.358;2024-03-02T13:14:13;15.10;92.70
37310;DHT22;23195;47.744;7.358;2024-03-02T13:16:39;15.00;92.70
37310;DHT22;23195;47.744;7.358;2024-03-02T13:19:11;14.80;93.20
37310;DHT22;23195;47.744;7.358;2024-03-02T13:21:38;14.90;92.80
37310;DHT22;23195;47.744;7.358;2024-03-02T13:24:04;14.90;92.70
37310;DHT22;23195;47.744;7.358;2024-03-02T13:26:31;15.00;92.50
37310;DHT22;23195;47.744;7.358;2024-03-02T13:28:57;14.50;91.50
37310;DHT22;23195;47.744;7.358;2024-03-02T13:31:22;14.90;91.80
37310;DHT22;23195;47.744;7.358;2024-03-02T13:33:51;14.80;92.10
37310;DHT22;23195;47.744;7.358;2024-03-02T13:36:17;14.70;92.10
37310;DHT22;23195;47.744;7.358;2024-03-02T13:38:47;14.70;92.00
37310;DHT22;23195;47.744;7.358;2024-03-02T13:41:13;14.60;91.10
37310;DHT22;23195;47.744;7.358;2024-03-02T13:43:39;14.60;90.90
37310;DHT22;23195;47.744;7.358;2024-03-02T13:46:05;14.70;90.80
37310;DHT22;23195;47.744;7.358;2024-03-02T13:48:34;14.60;90.60
37310;DHT22;23195;47.744;7.358;2024-03-02T13:51:00;14.60;90.10
37310;DHT22;23195;47.744;7.358;2024-03-02T13:53:26;14.50;90.00
37310;DHT22;23195;47.744;7.358;2024-03-02T13:55:51;14.40;89.90
37310;DHT22;23195;47.744;7.358;2024-03-02T13:58:17;14.90;90.20
37310;DHT22;23195;47.744;7.358;2024-03-02T14:00:44;14.40;89.80
37310;DHT22;23195;47.744;7.358;2024-03-02T14:03:10;14.20;90.30
37310;DHT22;23195;47.744;7.358;2024-03-02T14:05:39;14.20;90.60
37310;DHT22;23195;47.744;7.358;2024-03-02T14:08:05;14.20;90.80
37310;DHT22;23195;47.744;7.358;2024-03-02T14:10:31;14.40;90.80
37310;DHT22;23195;47.744;7.358;2024-03-02T14:12:56;14.10;90.90
37310;DHT22;23195;47.744;7.358;2024-03-02T14:15:23;14.20;90.90
37310;DHT22;23195;47.744;7.358;2024-03-02T14:17:49;14.20;91.20
37310;DHT22;23195;47.744;7.358;2024-03-02T14:20:15;14.10;91.10
37310;DHT22;23195;47.744;7.358;2024-03-02T14:22:47;14.00;91.30
37310;DHT22;23195;47.744;7.358;2024-03-02T14:25:13;13.90;91.00
37310;DHT22;23195;47.744;7.358;2024-03-02T14:27:39;13.90;90.80
37310;DHT22;23195;47.744;7.358;2024-03-02T14:30:06;13.80;90.70
37310;DHT22;23195;47.744;7.358;2024-03-02T14:32:32;13.90;90.80
37310;DHT22;23195;47.744;7.358;2024-03-02T14:34:58;14.00;90.50
37310;DHT22;23195;47.744;7.358;2024-03-02T14:37:24;14.00;90.60
37310;DHT22;23195;47.744;7.358;2024-03-02T14:39:50;14.00;90.50
37310;DHT22;23195;47.744;7.358;2024-03-02T14:42:16;13.80;90.70
37310;DHT22;23195;47.744;7.358;2024-03-02T14:44:42;13.80;91.00
37310;DHT22;23195;47.744;7.358;2024-03-02T14:47:08;13.90;91.10
37310;DHT22;23195;47.744;7.358;2024-03-02T14:49:33;14.00;91.00
37310;DHT22;23195;47.744;7.358;2024-03-02T14:52:05;14.10;91.00
37310;DHT22;23195;47.744;7.358;2024-03-02T14:54:30;14.20;91.20
37310;DHT22;23195;47.744;7.358;2024-03-02T14:56:56;14.40;91.10
37310;DHT22;23195;47.744;7.358;2024-03-02T14:59:22;14.50;91.40
37310;DHT22;23195;47.744;7.358;2024-03-02T15:01:48;14.60;91.10
37310;DHT22;23195;47.744;7.358;2024-03-02T15:04:22;14.90;91.00
37310;DHT22;23195;47.744;7.358;2024-03-02T15:06:47;15.00;90.50
37310;DHT22;23195;47.744;7.358;2024-03-02T15:09:13;15.00;90.50
37310;DHT22;23195;47.744;7.358;2024-03-02T15:11:39;14.70;90.70
37310;DHT22;23195;47.744;7.358;2024-03-02T15:14:05;14.60;91.30
37310;DHT22;23195;47.744;7.358;2024-03-02T15:16:31;14.60;90.90
37310;DHT22;23195;47.744;7.358;2024-03-02T15:18:57;14.50;90.90
37310;DHT22;23195;47.744;7.358;2024-03-02T15:21:23;14.60;90.70
37310;DHT22;23195;47.744;7.358;2024-03-02T15:23:48;14.40;90.80
37310;DHT22;23195;47.744;7.358;2024-03-02T15:26:14;14.30;90.90
37310;DHT22;23195;47.744;7.358;2024-03-02T15:28:41;14.30;91.30
37310;DHT22;23195;47.744;7.358;2024-03-02T15:31:07;14.30;91.30
37310;DHT22;23195;47.744;7.358;2024-03-02T15:33:32;14.30;91.30
37310;DHT22;23195;47.744;7.358;2024-03-02T15:35:59;14.30;91.50
37310;DHT22;23195;47.744;7.358;2024-03-02T15:38:26;14.30;91.60
37310;DHT22;23195;47.744;7.358;2024-03-02T15:40:52;14.20;91.20
37310;DHT22;23195;47.744;7.358;2024-03-02T15:43:18;14.20;91.50
37310;DHT22;23195;47.744;7.358;2024-03-02T15:45:44;14.30;91.70
37310;DHT22;23195;47.744;7.358;2024-03-02T15:48:09;14.10;91.40
37310;DHT22;23195;47.744;7.358;2024-03-02T15:50:35;14.00;91.50
37310;DHT22;23195;47.744;7.358;2024-03-02T15:53:03;13.90;91.30
37310;DHT22;23195;47.744;7.358;2024-03-02T15:55:32;13.90;91.80